createdAt,value
2018-08-28T00:01:25.980Z,57.10
2018-08-28T00:03:55.832Z,56.90
2018-08-28T00:06:25.691Z,57.70
2018-08-28T00:08:55.556Z,56.90
2018-08-28T00:11:25.305Z,56.90
2018-08-28T00:13:55.016Z,57.20
2018-08-28T00:16:24.693Z,56.90
2018-08-28T00:18:54.324Z,57.70
2018-08-28T00:21:23.999Z,58.20
2018-08-28T00:23:53.656Z,58.60
2018-08-28T00:26:23.446Z,58.10
2018-08-28T00:28:53.287Z,57.80
2018-08-28T00:31:23.169Z,58.70
2018-08-28T00:33:52.800Z,58.50
2018-08-28T00:36:22.476Z,58.30
2018-08-28T00:38:52.377Z,59.20
2018-08-28T00:41:22.353Z,59.00
2018-08-28T00:43:52.061Z,59.70
2018-08-28T00:46:21.745Z,58.80
2018-08-28T00:48:51.528Z,60.10
2018-08-28T00:51:21.193Z,59.30
2018-08-28T00:53:50.850Z,58.40
2018-08-28T00:56:20.596Z,58.80
2018-08-28T00:58:50.322Z,58.10
2018-08-28T01:01:20.129Z,58.30
2018-08-28T01:03:49.907Z,57.60
2018-08-28T01:06:19.609Z,57.20
2018-08-28T01:08:49.467Z,57.40
2018-08-28T01:11:19.220Z,57.60
2018-08-28T01:13:48.870Z,58.00
2018-08-28T01:16:18.568Z,58.60
2018-08-28T01:18:48.291Z,58.50
2018-08-28T01:21:18.104Z,58.50
2018-08-28T01:23:47.992Z,58.20
2018-08-28T01:26:18.646Z,58.70
2018-08-28T01:28:48.469Z,58.30
2018-08-28T01:31:18.183Z,58.30
2018-08-28T01:33:47.976Z,58.50
2018-08-28T01:36:17.576Z,58.20
2018-08-28T01:38:47.259Z,58.40
2018-08-28T01:41:17.016Z,58.70
2018-08-28T01:43:46.780Z,58.90
2018-08-28T01:46:16.430Z,59.10
2018-08-28T01:48:46.144Z,59.10
2018-08-28T01:51:15.958Z,59.00
2018-08-28T01:53:45.674Z,59.30
2018-08-28T01:56:15.784Z,59.00
2018-08-28T01:58:45.476Z,59.50
2018-08-28T02:01:15.164Z,59.00
2018-08-28T02:03:44.932Z,59.40
2018-08-28T02:06:14.782Z,59.60
2018-08-28T02:08:44.554Z,58.80
2018-08-28T02:11:14.304Z,58.50
2018-08-28T02:13:44.054Z,58.10
2018-08-28T02:16:13.838Z,57.80
2018-08-28T02:18:43.598Z,57.50
2018-08-28T02:21:13.456Z,58.70
2018-08-28T02:23:43.290Z,58.90
2018-08-28T02:26:12.975Z,59.00
2018-08-28T02:28:42.632Z,58.90
2018-08-28T02:31:12.576Z,58.80
2018-08-28T02:33:42.294Z,58.80
2018-08-28T02:36:12.091Z,58.60
2018-08-28T02:38:41.739Z,59.00
2018-08-28T02:41:11.360Z,58.80
2018-08-28T02:43:41.054Z,58.40
2018-08-28T02:46:10.713Z,59.10
2018-08-28T02:48:40.507Z,59.40
2018-08-28T02:51:10.139Z,58.60
2018-08-28T02:53:39.806Z,58.20
2018-08-28T02:56:09.564Z,57.60
2018-08-28T02:58:39.140Z,57.60
2018-08-28T03:01:08.832Z,58.10
2018-08-28T03:03:38.472Z,58.30
2018-08-28T03:06:08.230Z,58.20
2018-08-28T03:08:37.941Z,58.70
2018-08-28T03:11:13.350Z,58.60
2018-08-28T03:13:46.421Z,58.50
2018-08-28T03:16:18.854Z,58.80
2018-08-28T03:18:48.605Z,58.30
2018-08-28T03:21:18.467Z,57.90
2018-08-28T03:23:48.224Z,58.80
2018-08-28T03:26:17.920Z,59.00
2018-08-28T03:28:47.608Z,59.90
2018-08-28T03:31:17.153Z,59.90
2018-08-28T03:33:47.027Z,60.10
2018-08-28T03:36:16.568Z,60.90
2018-08-28T03:38:46.269Z,62.20
2018-08-28T03:41:16.058Z,61.70
2018-08-28T03:43:45.689Z,61.20
2018-08-28T03:46:15.320Z,62.60
2018-08-28T03:48:45.146Z,61.40
2018-08-28T03:51:14.909Z,62.10
2018-08-28T03:53:44.644Z,62.30
2018-08-28T03:56:14.330Z,61.30
2018-08-28T03:58:44.059Z,61.00
2018-08-28T04:01:13.681Z,61.00
2018-08-28T04:03:43.587Z,62.70
2018-08-28T04:06:13.805Z,62.30
2018-08-28T04:08:43.482Z,63.30
2018-08-28T04:11:13.127Z,63.40
2018-08-28T04:13:43.005Z,62.10
2018-08-28T04:16:12.732Z,61.60
2018-08-28T04:18:42.385Z,61.50
2018-08-28T04:21:12.132Z,61.40
2018-08-28T04:23:41.871Z,60.90
2018-08-28T04:26:11.464Z,60.50
2018-08-28T04:28:41.112Z,60.00
2018-08-28T04:31:10.919Z,59.10
2018-08-28T04:33:40.676Z,59.20
2018-08-28T04:36:10.419Z,58.40
2018-08-28T04:38:40.092Z,58.40
2018-08-28T04:41:09.749Z,59.70
2018-08-28T04:43:40.153Z,59.00
2018-08-28T04:46:09.761Z,59.20
2018-08-28T04:48:39.400Z,59.30
2018-08-28T04:51:09.201Z,59.60
2018-08-28T04:53:39.187Z,60.50
2018-08-28T04:56:09.060Z,59.80
2018-08-28T04:58:39.005Z,59.70
2018-08-28T05:01:08.778Z,61.10
2018-08-28T05:03:38.522Z,62.90
2018-08-28T05:06:08.341Z,61.20
2018-08-28T05:08:38.192Z,62.40
2018-08-28T05:11:08.320Z,61.30
2018-08-28T05:13:38.129Z,60.60
2018-08-28T05:16:07.912Z,61.40
2018-08-28T05:18:38.920Z,62.20
2018-08-28T05:21:08.688Z,62.40
2018-08-28T05:23:40.780Z,62.30
2018-08-28T05:26:10.540Z,61.00
2018-08-28T05:28:40.292Z,62.90
2018-08-28T05:31:10.285Z,60.10
2018-08-28T05:33:39.960Z,62.10
2018-08-28T05:36:09.724Z,62.40
2018-08-28T05:38:39.482Z,61.80
2018-08-28T05:41:09.308Z,62.80
2018-08-28T05:43:39.105Z,62.30
2018-08-28T05:46:08.856Z,62.30
2018-08-28T05:48:38.633Z,62.00
2018-08-28T05:51:08.283Z,59.10
2018-08-28T05:53:37.965Z,56.60
2018-08-28T05:56:08.168Z,58.50
2018-08-28T05:58:37.976Z,60.80
2018-08-28T06:01:07.634Z,62.10
2018-08-28T06:03:37.734Z,62.90
2018-08-28T06:06:07.461Z,65.60
2018-08-28T06:08:37.354Z,65.60
2018-08-28T06:11:07.120Z,65.00
2018-08-28T06:13:37.216Z,64.40
2018-08-28T06:16:07.022Z,63.90
2018-08-28T06:18:36.712Z,63.10
2018-08-28T06:21:06.520Z,62.30
2018-08-28T06:23:36.335Z,62.90
2018-08-28T06:26:06.278Z,63.50
2018-08-28T06:28:35.957Z,58.20
2018-08-28T06:31:05.845Z,43.70
2018-08-28T06:33:35.492Z,1.00
2018-08-28T06:36:05.281Z,99.90
2018-08-28T06:38:35.122Z,99.90
2018-08-28T06:41:04.817Z,1.00
2018-08-28T06:43:34.568Z,99.90
2018-08-28T06:46:04.264Z,99.90
2018-08-28T06:48:34.027Z,1.00
2018-08-28T06:51:03.674Z,99.90
2018-08-28T06:53:33.370Z,99.90
2018-08-28T06:56:03.048Z,99.90
2018-08-28T06:58:32.673Z,99.90
2018-08-28T07:01:02.290Z,99.90
2018-08-28T07:03:32.023Z,99.90
2018-08-28T07:06:01.716Z,99.90
2018-08-28T07:08:31.390Z,99.90
2018-08-28T07:11:01.044Z,99.90
2018-08-28T07:13:30.610Z,99.90
2018-08-28T07:16:00.256Z,99.90
2018-08-28T07:18:29.950Z,99.90
2018-08-28T07:20:59.737Z,99.90
2018-08-28T07:23:29.492Z,99.90
2018-08-28T07:25:59.272Z,99.90
2018-08-28T07:28:28.913Z,99.90
2018-08-28T07:30:58.593Z,99.90
2018-08-28T07:33:28.297Z,99.90
2018-08-28T07:35:58.061Z,99.90
2018-08-28T07:38:27.809Z,99.90
2018-08-28T07:40:57.459Z,99.90
2018-08-28T07:43:27.244Z,99.90
2018-08-28T07:45:57.098Z,99.90
2018-08-28T07:48:26.850Z,99.90
2018-08-28T07:50:56.956Z,1.00
2018-08-28T07:53:26.594Z,1.00
2018-08-28T07:55:56.464Z,29.50
2018-08-28T07:58:26.138Z,41.60
2018-08-28T08:00:55.812Z,42.90
2018-08-28T08:03:26.065Z,40.10
2018-08-28T08:05:56.689Z,41.10
2018-08-28T08:08:26.482Z,42.50
2018-08-28T08:10:57.144Z,44.20
2018-08-28T08:13:26.976Z,43.20
2018-08-28T08:15:56.797Z,45.00
2018-08-28T08:18:26.589Z,44.40
2018-08-28T08:20:56.351Z,44.70
2018-08-28T08:23:26.121Z,44.40
2018-08-28T08:25:55.876Z,44.30
2018-08-28T08:28:25.661Z,46.10
2018-08-28T08:30:55.404Z,46.70
2018-08-28T08:33:25.193Z,44.50
2018-08-28T08:35:54.981Z,44.60
2018-08-28T08:38:24.635Z,41.90
2018-08-28T08:40:54.291Z,40.30
2018-08-28T08:43:23.982Z,38.60
2018-08-28T08:45:53.716Z,36.30
2018-08-28T08:48:23.386Z,36.80
2018-08-28T08:50:53.285Z,35.20
2018-08-28T08:53:22.930Z,33.60
2018-08-28T08:55:52.705Z,32.70
2018-08-28T08:58:22.368Z,31.60
2018-08-28T09:00:51.960Z,31.20
2018-08-28T09:03:21.749Z,31.90
2018-08-28T09:05:51.592Z,30.10
2018-08-28T09:08:21.376Z,29.40
2018-08-28T09:10:51.068Z,30.00
2018-08-28T09:13:20.843Z,29.10
2018-08-28T09:15:50.672Z,28.30
2018-08-28T09:18:20.443Z,28.10
2018-08-28T09:20:50.146Z,28.60
2018-08-28T09:23:19.815Z,28.20
2018-08-28T09:25:49.562Z,27.90
2018-08-28T09:28:19.340Z,28.20
2018-08-28T09:30:49.040Z,27.20
2018-08-28T09:33:18.865Z,26.90
2018-08-28T09:35:48.558Z,26.90
2018-08-28T09:38:18.301Z,26.50
2018-08-28T09:40:48.046Z,26.40
2018-08-28T09:43:17.933Z,25.70
2018-08-28T09:45:47.675Z,24.90
2018-08-28T09:48:17.606Z,25.90
2018-08-28T09:50:47.274Z,25.80
2018-08-28T09:53:16.912Z,25.80
2018-08-28T09:55:46.772Z,25.20
2018-08-28T09:58:16.416Z,25.00
2018-08-28T10:00:51.188Z,25.30
2018-08-28T10:03:21.068Z,24.10
2018-08-28T10:05:50.899Z,25.30
2018-08-28T10:08:20.680Z,25.90
2018-08-28T10:10:50.467Z,25.40
2018-08-28T10:13:20.208Z,24.90
2018-08-28T10:15:50.077Z,25.00
2018-08-28T10:18:19.739Z,24.80
2018-08-28T10:20:49.499Z,25.70
2018-08-28T10:23:19.154Z,26.00
2018-08-28T10:25:48.944Z,26.70
2018-08-28T10:28:18.725Z,26.80
2018-08-28T10:30:48.393Z,27.00
2018-08-28T10:33:18.043Z,29.20
2018-08-28T10:38:16.846Z,29.70
2018-08-28T10:40:46.487Z,32.00
2018-08-28T10:43:16.152Z,32.10
2018-08-28T10:45:45.937Z,31.80
2018-08-28T10:48:15.800Z,33.70
2018-08-28T10:50:45.464Z,32.70
2018-08-28T10:53:15.129Z,34.90
2018-08-28T10:55:44.761Z,35.70
2018-08-28T10:58:14.456Z,37.40
2018-08-28T11:00:44.243Z,36.40
2018-08-28T11:03:13.889Z,37.80
2018-08-28T11:05:43.779Z,36.70
2018-08-28T11:08:13.621Z,36.90
2018-08-28T11:10:43.497Z,38.20
2018-08-28T11:13:13.152Z,38.30
2018-08-28T11:15:42.837Z,37.60
2018-08-28T11:18:12.572Z,39.90
2018-08-28T11:20:42.273Z,39.00
2018-08-28T11:23:11.977Z,37.10
2018-08-28T11:25:41.808Z,39.30
2018-08-28T11:28:11.508Z,39.30
2018-08-28T11:30:41.270Z,39.80
2018-08-28T11:33:11.036Z,42.20
2018-08-28T11:35:40.862Z,42.60
2018-08-28T11:38:10.645Z,43.20
2018-08-28T11:40:40.240Z,41.70
2018-08-28T11:43:09.989Z,41.80
2018-08-28T11:45:39.672Z,42.70
2018-08-28T11:48:09.277Z,42.20
2018-08-28T11:50:38.953Z,42.60
2018-08-28T11:53:08.723Z,42.50
2018-08-28T11:55:38.508Z,42.70
2018-08-28T11:58:08.225Z,43.70
2018-08-28T12:00:37.936Z,43.10
2018-08-28T12:03:07.808Z,44.60
2018-08-28T12:05:37.341Z,45.40
2018-08-28T12:08:06.950Z,44.60
2018-08-28T12:10:36.848Z,46.30
2018-08-28T12:13:06.772Z,45.90
2018-08-28T12:15:36.512Z,45.60
2018-08-28T12:18:06.205Z,44.60
2018-08-28T12:20:36.031Z,44.60
2018-08-28T12:23:05.851Z,43.30
2018-08-28T12:25:35.520Z,41.40
2018-08-28T12:28:05.357Z,44.60
2018-08-28T12:30:34.952Z,42.80
2018-08-28T12:33:04.633Z,43.50
2018-08-28T12:35:34.305Z,45.20
2018-08-28T12:38:04.157Z,46.30
2018-08-28T12:40:33.918Z,46.70
2018-08-28T12:43:03.604Z,46.20
2018-08-28T12:45:33.437Z,46.10
2018-08-28T12:48:03.222Z,45.20
2018-08-28T12:50:32.849Z,44.50
2018-08-28T12:53:02.675Z,45.90
2018-08-28T12:55:32.434Z,47.40
2018-08-28T12:58:02.085Z,46.60
2018-08-28T13:00:31.919Z,47.40
2018-08-28T13:03:01.612Z,46.70
2018-08-28T13:05:31.330Z,46.30
2018-08-28T13:08:01.081Z,45.90
2018-08-28T13:10:30.822Z,45.70
2018-08-28T13:13:00.611Z,44.20
2018-08-28T13:15:30.357Z,45.20
2018-08-28T13:18:00.129Z,43.50
2018-08-28T13:20:29.782Z,44.00
2018-08-28T13:22:59.564Z,44.20
2018-08-28T13:25:29.295Z,43.90
2018-08-28T13:27:59.016Z,45.10
2018-08-28T13:30:28.877Z,44.70
2018-08-28T13:32:58.658Z,46.40
2018-08-28T13:35:28.398Z,46.40
2018-08-28T13:37:58.049Z,45.80
2018-08-28T13:40:27.869Z,46.60
2018-08-28T13:42:57.576Z,46.10
2018-08-28T13:45:27.402Z,43.90
2018-08-28T13:47:57.260Z,45.30
2018-08-28T13:50:26.908Z,44.40
2018-08-28T13:52:56.494Z,45.20
2018-08-28T13:55:26.232Z,45.80
2018-08-28T13:57:55.921Z,45.90
2018-08-28T14:00:25.722Z,45.70
2018-08-28T14:02:55.471Z,45.80
2018-08-28T14:05:25.335Z,46.40
2018-08-28T14:07:55.084Z,46.40
2018-08-28T14:10:24.981Z,46.60
2018-08-28T14:12:54.684Z,47.60
2018-08-28T14:15:24.537Z,47.90
2018-08-28T14:17:54.322Z,48.20
2018-08-28T14:20:23.982Z,46.10
2018-08-28T14:22:53.744Z,46.10
2018-08-28T14:25:23.669Z,46.00
2018-08-28T14:27:53.606Z,45.90
2018-08-28T14:30:23.396Z,46.80
2018-08-28T14:32:53.160Z,47.00
2018-08-28T14:35:22.725Z,47.80
2018-08-28T14:37:52.435Z,48.40
2018-08-28T14:40:22.322Z,48.80
2018-08-28T14:42:51.958Z,49.40
2018-08-28T14:45:21.828Z,49.70
2018-08-28T14:47:51.574Z,49.30
2018-08-28T14:50:21.549Z,48.10
2018-08-28T14:52:51.209Z,49.70
2018-08-28T14:55:20.985Z,49.10
2018-08-28T14:57:50.713Z,48.40
2018-08-28T15:00:20.497Z,46.80
2018-08-28T15:02:50.417Z,46.60
2018-08-28T15:05:20.061Z,48.60
2018-08-28T15:07:50.044Z,47.90
2018-08-28T15:12:48.959Z,49.10
2018-08-28T15:15:18.847Z,48.50
2018-08-28T15:17:48.502Z,48.60
2018-08-28T15:20:18.304Z,48.20
2018-08-28T15:22:48.025Z,46.70
2018-08-28T15:25:17.815Z,47.70
2018-08-28T15:27:47.437Z,47.50
2018-08-28T15:30:17.349Z,47.50
2018-08-28T15:32:47.214Z,48.40
2018-08-28T15:35:17.081Z,49.00
2018-08-28T15:37:46.789Z,50.20
2018-08-28T15:40:16.585Z,49.60
2018-08-28T15:42:46.281Z,49.20
2018-08-28T15:45:16.558Z,49.80
2018-08-28T15:47:46.389Z,50.80
2018-08-28T15:50:16.169Z,51.50
2018-08-28T15:52:45.985Z,51.80
2018-08-28T15:55:15.693Z,51.80
2018-08-28T15:57:45.553Z,51.40
2018-08-28T16:00:15.422Z,51.30
2018-08-28T16:02:45.350Z,52.30
2018-08-28T16:05:15.137Z,52.40
2018-08-28T16:07:45.013Z,52.20
2018-08-28T16:10:14.760Z,52.10
2018-08-28T16:12:44.458Z,52.40
2018-08-28T16:15:13.854Z,52.60
2018-08-28T16:17:43.480Z,52.80
2018-08-28T16:20:12.877Z,53.00
2018-08-28T16:22:48.292Z,52.70
2018-08-28T16:25:17.670Z,53.40
2018-08-28T16:27:47.087Z,53.70
2018-08-28T16:30:16.514Z,54.00
2018-08-28T16:32:45.928Z,54.90
2018-08-28T16:35:15.372Z,55.20
2018-08-28T16:37:44.960Z,55.90
2018-08-28T16:40:14.344Z,55.80
2018-08-28T16:42:44.192Z,56.20
2018-08-28T16:45:13.608Z,56.80
2018-08-28T16:47:43.095Z,57.50
2018-08-28T16:50:12.622Z,57.40
2018-08-28T16:52:41.948Z,56.80
2018-08-28T16:55:11.359Z,58.10
2018-08-28T16:57:40.729Z,58.10
2018-08-28T17:00:10.142Z,58.90
2018-08-28T17:02:39.577Z,59.20
2018-08-28T17:05:08.968Z,59.40
2018-08-28T17:07:38.438Z,60.80
2018-08-28T17:10:07.937Z,59.80
2018-08-28T17:12:37.446Z,60.00
2018-08-28T17:15:06.955Z,59.30
2018-08-28T17:17:36.332Z,59.70
2018-08-28T17:20:05.756Z,60.90
2018-08-28T17:22:35.140Z,61.80
2018-08-28T17:25:04.535Z,62.60
2018-08-28T17:27:33.936Z,63.10
2018-08-28T17:30:03.336Z,61.50
2018-08-28T17:32:32.713Z,62.50
2018-08-28T17:35:02.529Z,60.90
2018-08-28T17:37:32.022Z,60.50
2018-08-28T17:40:01.463Z,60.40
2018-08-28T17:42:30.884Z,59.80
2018-08-28T17:45:00.277Z,62.00
2018-08-28T17:47:29.778Z,60.30
2018-08-28T17:49:59.198Z,60.10
2018-08-28T17:52:28.609Z,60.60
2018-08-28T17:54:58.016Z,61.90
2018-08-28T17:57:27.412Z,64.20
2018-08-28T17:59:56.840Z,64.10
2018-08-28T18:02:26.248Z,59.70
2018-08-28T18:04:55.633Z,58.10
2018-08-28T18:07:25.064Z,58.00
2018-08-28T18:09:54.429Z,59.50
2018-08-28T18:12:23.845Z,60.40
2018-08-28T18:14:53.252Z,61.60
2018-08-28T18:17:22.615Z,60.90
2018-08-28T18:19:52.009Z,63.80
2018-08-28T18:22:21.483Z,64.00
2018-08-28T18:24:51.216Z,63.20
2018-08-28T18:27:20.690Z,63.90
2018-08-28T18:29:50.122Z,59.30
2018-08-28T18:32:19.568Z,60.40
2018-08-28T18:34:48.956Z,59.30
2018-08-28T18:37:18.418Z,59.80
2018-08-28T18:39:47.824Z,58.70
2018-08-28T18:42:17.266Z,58.90
2018-08-28T18:44:46.637Z,58.70
2018-08-28T18:47:16.201Z,58.90
2018-08-28T18:49:45.623Z,59.10
2018-08-28T18:52:15.062Z,60.00
2018-08-28T18:54:44.482Z,60.00
2018-08-28T18:57:13.873Z,60.00
2018-08-28T18:59:43.257Z,60.50
2018-08-28T19:02:12.676Z,60.90
2018-08-28T19:04:42.037Z,59.80
2018-08-28T19:07:11.408Z,60.90
2018-08-28T19:09:40.817Z,60.80
2018-08-28T19:12:10.260Z,60.40
2018-08-28T19:14:39.696Z,60.60
2018-08-28T19:17:09.175Z,61.30
2018-08-28T19:19:38.597Z,60.70
2018-08-28T19:22:08.202Z,61.10
2018-08-28T19:24:37.821Z,61.70
2018-08-28T19:27:07.232Z,61.30
2018-08-28T19:29:36.607Z,61.70
2018-08-28T19:32:06.201Z,61.60
2018-08-28T19:34:35.757Z,61.00
2018-08-28T19:37:05.196Z,61.60
2018-08-28T19:39:34.585Z,62.20
2018-08-28T19:42:04.669Z,61.40
2018-08-28T19:44:34.150Z,62.00
2018-08-28T19:47:04.325Z,61.90
2018-08-28T19:49:34.203Z,62.20
2018-08-28T19:52:03.579Z,62.00
2018-08-28T19:54:33.453Z,61.90
2018-08-28T19:57:03.199Z,61.80
2018-08-28T19:59:32.969Z,62.20
2018-08-28T20:02:02.576Z,62.10
2018-08-28T20:04:32.266Z,62.50
2018-08-28T20:07:01.881Z,62.40
2018-08-28T20:09:31.482Z,63.40
2018-08-28T20:12:01.091Z,63.20
2018-08-28T20:14:30.551Z,63.70
2018-08-28T20:17:00.067Z,63.30
2018-08-28T20:19:29.588Z,63.50
2018-08-28T20:21:58.952Z,63.30
2018-08-28T20:24:28.358Z,63.80
2018-08-28T20:26:57.792Z,63.70
2018-08-28T20:29:27.125Z,64.30
2018-08-28T20:31:56.552Z,64.70
2018-08-28T20:34:26.235Z,64.40
2018-08-28T20:36:56.311Z,64.40
2018-08-28T20:39:25.708Z,64.20
2018-08-28T20:41:56.011Z,65.20
2018-08-28T20:44:25.456Z,64.40
2018-08-28T20:46:55.226Z,64.40
2018-08-28T20:49:25.140Z,65.40
2018-08-28T20:51:54.520Z,66.40
2018-08-28T20:54:24.322Z,66.10
2018-08-28T20:56:54.652Z,66.10
2018-08-28T20:59:25.135Z,66.10
2018-08-28T21:01:54.865Z,66.50
2018-08-28T21:04:37.251Z,66.40
2018-08-28T21:07:08.201Z,66.90
2018-08-28T21:09:38.397Z,67.20
2018-08-28T21:12:07.765Z,67.90
2018-08-28T21:14:37.608Z,68.00
2018-08-28T21:17:08.024Z,67.40
2018-08-28T21:19:38.795Z,67.60
2018-08-28T21:22:09.204Z,68.20
2018-08-28T21:24:39.367Z,68.30
2018-08-28T21:27:10.401Z,68.30
2018-08-28T21:29:40.778Z,68.20
2018-08-28T21:32:10.832Z,68.30
2018-08-28T21:34:41.113Z,68.40
2018-08-28T21:37:11.164Z,68.60
2018-08-28T21:39:41.029Z,68.90
2018-08-28T21:42:11.629Z,69.40
2018-08-28T21:44:42.160Z,68.50
2018-08-28T21:47:11.948Z,68.50
2018-08-28T21:49:41.718Z,68.70
2018-08-28T21:52:11.616Z,68.40
2018-08-28T21:54:41.331Z,68.80
2018-08-28T21:57:10.988Z,68.60
2018-08-28T21:59:40.739Z,68.60
2018-08-28T22:02:10.509Z,68.90
2018-08-28T22:04:40.205Z,69.50
2018-08-28T22:07:14.936Z,69.10
2018-08-28T22:09:44.669Z,68.90
2018-08-28T22:12:14.435Z,68.70
2018-08-28T22:14:44.148Z,69.10
2018-08-28T22:17:13.845Z,69.30
2018-08-28T22:19:43.692Z,69.80
2018-08-28T22:22:13.478Z,69.70
2018-08-28T22:24:43.115Z,69.80
2018-08-28T22:27:12.888Z,70.50
2018-08-28T22:29:42.713Z,70.40
2018-08-28T22:32:12.418Z,70.40
2018-08-28T22:34:42.284Z,70.90
2018-08-28T22:37:12.032Z,71.20
2018-08-28T22:39:41.686Z,71.00
2018-08-28T22:42:11.374Z,71.00
2018-08-28T22:44:41.000Z,71.30
2018-08-28T22:47:10.719Z,71.40
2018-08-28T22:49:40.597Z,70.70
2018-08-28T22:52:10.244Z,70.80
2018-08-28T22:54:40.016Z,70.60
2018-08-28T22:57:09.758Z,71.10
2018-08-28T22:59:39.613Z,71.20
2018-08-28T23:02:09.335Z,71.30
2018-08-28T23:04:38.999Z,71.80
2018-08-28T23:07:09.115Z,71.30
2018-08-28T23:09:38.693Z,72.00
2018-08-28T23:12:08.495Z,71.90
2018-08-28T23:14:38.133Z,72.30
2018-08-28T23:17:08.015Z,72.80
2018-08-28T23:19:37.772Z,72.00
2018-08-28T23:22:07.737Z,71.80
2018-08-28T23:24:37.469Z,72.10
2018-08-28T23:27:07.257Z,71.90
2018-08-28T23:29:37.017Z,72.30
2018-08-28T23:32:06.720Z,72.10
2018-08-28T23:34:36.635Z,71.80
2018-08-28T23:37:06.340Z,71.80
2018-08-28T23:39:36.011Z,71.00
2018-08-28T23:42:05.655Z,71.50
2018-08-28T23:44:35.259Z,71.80
2018-08-28T23:47:05.077Z,72.00
2018-08-28T23:49:34.768Z,72.10
2018-08-28T23:52:04.552Z,72.60
2018-08-28T23:54:34.204Z,72.60
2018-08-28T23:57:03.915Z,72.10
2018-08-28T23:59:33.632Z,73.00
